sensor_id;sensor_type;location;lat;lon;timestamp;pressure;altitude;pressure_sealevel;temperature;humidity
6393;BME280;3229;42.674;23.282;2024-01-15T00:00:58;94008.78;;;4.01;56.36
6393;BME280;3229;42.674;23.282;2024-01-15T00:03:26;94018.47;;;3.96;56.49
6393;BME280;3229;42.674;23.282;2024-01-15T00:05:53;94016.50;;;4.00;56.55
6393;BME280;3229;42.674;23.282;2024-01-15T00:08:20;94004.09;;;3.97;56.54
6393;BME280;3229;42.674;23.282;2024-01-15T00:10:47;94001.69;;;3.95;56.62
6393;BME280;3229;42.674;23.282;2024-01-15T00:13:13;94004.09;;;3.97;56.62
6393;BME280;3229;42.674;23.282;2024-01-15T00:15:40;94010.06;;;3.96;56.46
6393;BME280;3229;42.674;23.282;2024-01-15T00:18:07;93989.97;;;3.94;56.56
6393;BME280;3229;42.674;23.282;2024-01-15T00:20:35;94005.94;;;3.95;56.58
6393;BME280;3229;42.674;23.282;2024-01-15T00:23:03;93989.28;;;3.81;56.48
6393;BME280;3229;42.674;23.282;2024-01-15T00:25:30;94007.09;;;3.91;56.51
6393;BME280;3229;42.674;23.282;2024-01-15T00:27:57;94013.66;;;3.93;56.55
6393;BME280;3229;42.674;23.282;2024-01-15T00:30:23;93985.78;;;3.71;56.70
6393;BME280;3229;42.674;23.282;2024-01-15T00:32:50;94016.41;;;3.90;56.65
6393;BME280;3229;42.674;23.282;2024-01-15T00:35:17;94014.09;;;3.87;56.70
6393;BME280;3229;42.674;23.282;2024-01-15T00:37:45;93987.66;;;3.69;56.85
6393;BME280;3229;42.674;23.282;2024-01-15T00:40:12;94016.63;;;3.87;56.82
6393;BME280;3229;42.674;23.282;2024-01-15T00:42:39;94003.50;;;3.82;56.79
6393;BME280;3229;42.674;23.282;2024-01-15T00:45:06;94014.22;;;3.86;56.74
6393;BME280;3229;42.674;23.282;2024-01-15T00:47:33;94016.84;;;3.84;56.85
6393;BME280;3229;42.674;23.282;2024-01-15T00:50:01;94020.28;;;3.83;56.66
6393;BME280;3229;42.674;23.282;2024-01-15T00:52:28;93973.59;;;3.53;56.80
6393;BME280;3229;42.674;23.282;2024-01-15T00:54:56;94013.63;;;3.82;56.74
6393;BME280;3229;42.674;23.282;2024-01-15T00:57:23;94015.34;;;3.82;56.84
6393;BME280;3229;42.674;23.282;2024-01-15T00:59:50;94003.28;;;3.74;56.73
6393;BME280;3229;42.674;23.282;2024-01-15T01:02:16;94011.31;;;3.79;56.83
6393;BME280;3229;42.674;23.282;2024-01-15T01:04:43;94013.06;;;3.78;56.96
6393;BME280;3229;42.674;23.282;2024-01-15T01:07:10;94008.78;;;3.79;56.89
6393;BME280;3229;42.674;23.282;2024-01-15T01:09:37;94007.53;;;3.73;57.20
6393;BME280;3229;42.674;23.282;2024-01-15T01:12:06;94003.41;;;3.72;56.80
6393;BME280;3229;42.674;23.282;2024-01-15T01:14:32;94008.13;;;3.77;57.14
6393;BME280;3229;42.674;23.282;2024-01-15T01:16:59;94003.28;;;3.74;57.03
6393;BME280;3229;42.674;23.282;2024-01-15T01:19:26;93947.53;;;3.42;56.85
6393;BME280;3229;42.674;23.282;2024-01-15T01:21:53;93996.50;;;3.74;56.98
6393;BME280;3229;42.674;23.282;2024-01-15T01:24:19;93999.16;;;3.73;57.07
6393;BME280;3229;42.674;23.282;2024-01-15T01:26:46;93989.03;;;3.73;56.98
6393;BME280;3229;42.674;23.282;2024-01-15T01:29:14;93988.22;;;3.72;57.04
6393;BME280;3229;42.674;23.282;2024-01-15T01:31:44;93983.38;;;3.69;56.98
6393;BME280;3229;42.674;23.282;2024-01-15T01:34:13;93944.75;;;3.45;57.02
6393;BME280;3229;42.674;23.282;2024-01-15T01:36:40;93977.31;;;3.72;56.95
6393;BME280;3229;42.674;23.282;2024-01-15T01:39:07;93979.94;;;3.70;57.07
6393;BME280;3229;42.674;23.282;2024-01-15T01:41:34;93973.16;;;3.71;57.08
6393;BME280;3229;42.674;23.282;2024-01-15T01:44:01;93977.31;;;3.72;57.07
6393;BME280;3229;42.674;23.282;2024-01-15T01:46:29;93856.63;;;2.95;56.99
6393;BME280;3229;42.674;23.282;2024-01-15T01:48:57;93971.56;;;3.70;57.10
6393;BME280;3229;42.674;23.282;2024-01-15T01:51:29;93973.28;;;3.69;57.11
6393;BME280;3229;42.674;23.282;2024-01-15T01:53:55;93975.81;;;3.69;57.01
6393;BME280;3229;42.674;23.282;2024-01-15T01:56:23;93964.31;;;3.65;57.31
6393;BME280;3229;42.674;23.282;2024-01-15T01:58:50;93965.81;;;3.68;57.20
6393;BME280;3229;42.674;23.282;2024-01-15T02:01:18;93968.34;;;3.68;56.98
6393;BME280;3229;42.674;23.282;2024-01-15T02:03:46;93901.78;;;3.22;56.97
6393;BME280;3229;42.674;23.282;2024-01-15T02:06:13;93967.63;;;3.66;57.13
6393;BME280;3229;42.674;23.282;2024-01-15T02:08:43;93962.59;;;3.66;57.25
6393;BME280;3229;42.674;23.282;2024-01-15T02:11:10;93959.25;;;3.65;57.18
6393;BME280;3229;42.674;23.282;2024-01-15T02:13:38;93954.19;;;3.65;57.15
6393;BME280;3229;42.674;23.282;2024-01-15T02:16:05;93955.94;;;3.65;57.26
6393;BME280;3229;42.674;23.282;2024-01-15T02:18:40;93951.66;;;3.65;57.32
6393;BME280;3229;42.674;23.282;2024-01-15T02:21:08;93936.63;;;3.64;57.08
6393;BME280;3229;42.674;23.282;2024-01-15T02:23:36;93920.66;;;3.63;57.18
6393;BME280;3229;42.674;23.282;2024-01-15T02:26:04;93895.59;;;3.60;57.17
6393;BME280;3229;42.674;23.282;2024-01-15T02:28:32;93877.56;;;3.42;57.18
6393;BME280;3229;42.674;23.282;2024-01-15T02:30:59;93854.81;;;3.31;57.31
6393;BME280;3229;42.674;23.282;2024-01-15T02:33:26;93902.16;;;3.63;57.29
6393;BME280;3229;42.674;23.282;2024-01-15T02:35:53;93891.69;;;3.56;57.27
6393;BME280;3229;42.674;23.282;2024-01-15T02:38:20;93910.53;;;3.63;57.37
6393;BME280;3229;42.674;23.282;2024-01-15T02:40:49;93903.75;;;3.64;57.36
6393;BME280;3229;42.674;23.282;2024-01-15T02:43:16;93909.63;;;3.64;57.26
6393;BME280;3229;42.674;23.282;2024-01-15T02:45:44;93910.41;;;3.65;57.42
6393;BME280;3229;42.674;23.282;2024-01-15T02:48:11;93912.81;;;3.66;57.37
6393;BME280;3229;42.674;23.282;2024-01-15T02:50:38;93899.63;;;3.63;57.29
6393;BME280;3229;42.674;23.282;2024-01-15T02:53:05;93881.00;;;3.52;57.37
6393;BME280;3229;42.674;23.282;2024-01-15T02:55:32;93907.53;;;3.69;57.36
6393;BME280;3229;42.674;23.282;2024-01-15T02:58:00;93897.31;;;3.71;57.38
6393;BME280;3229;42.674;23.282;2024-01-15T03:00:27;93893.88;;;3.72;57.52
6393;BME280;3229;42.674;23.282;2024-01-15T03:02:54;93888.13;;;3.70;57.39
6393;BME280;3229;42.674;23.282;2024-01-15T03:05:21;93905.47;;;3.74;57.34
6393;BME280;3229;42.674;23.282;2024-01-15T03:07:48;93896.06;;;3.76;57.47
6393;BME280;3229;42.674;23.282;2024-01-15T03:10:15;93875.03;;;3.65;57.35
6393;BME280;3229;42.674;23.282;2024-01-15T03:12:41;93894.34;;;3.77;57.31
6393;BME280;3229;42.674;23.282;2024-01-15T03:15:10;93886.75;;;3.77;57.37
6393;BME280;3229;42.674;23.282;2024-01-15T03:17:36;93886.75;;;3.77;57.26
6393;BME280;3229;42.674;23.282;2024-01-15T03:20:04;93884.22;;;3.77;57.36
6393;BME280;3229;42.674;23.282;2024-01-15T03:22:31;93876.50;;;3.78;57.33
6393;BME280;3229;42.674;23.282;2024-01-15T03:24:58;93886.53;;;3.80;57.54
6393;BME280;3229;42.674;23.282;2024-01-15T03:27:25;93886.25;;;3.83;57.30
6393;BME280;3229;42.674;23.282;2024-01-15T03:29:52;93835.50;;;3.64;57.27
6393;BME280;3229;42.674;23.282;2024-01-15T03:32:20;93874.19;;;3.87;57.18
6393;BME280;3229;42.674;23.282;2024-01-15T03:34:47;93875.69;;;3.89;57.23
6393;BME280;3229;42.674;23.282;2024-01-15T03:37:14;93870.88;;;3.86;57.16
6393;BME280;3229;42.674;23.282;2024-01-15T03:39:40;93871.19;;;3.93;57.16
6393;BME280;3229;42.674;23.282;2024-01-15T03:42:07;93867.84;;;3.92;57.04
6393;BME280;3229;42.674;23.282;2024-01-15T03:44:34;93866.59;;;3.98;57.18
6393;BME280;3229;42.674;23.282;2024-01-15T03:47:01;93865.09;;;3.95;57.30
6393;BME280;3229;42.674;23.282;2024-01-15T03:49:29;93865.44;;;4.02;57.01
6393;BME280;3229;42.674;23.282;2024-01-15T03:51:56;93859.25;;;3.95;57.08
6393;BME280;3229;42.674;23.282;2024-01-15T03:54:22;93874.63;;;4.03;57.13
6393;BME280;3229;42.674;23.282;2024-01-15T03:56:49;93857.63;;;3.94;57.20
6393;BME280;3229;42.674;23.282;2024-01-15T03:59:16;93881.41;;;4.02;57.12
6393;BME280;3229;42.674;23.282;2024-01-15T04:01:48;93828.16;;;3.72;57.64
6393;BME280;3229;42.674;23.282;2024-01-15T04:04:15;93868.88;;;4.01;57.29
6393;BME280;3229;42.674;23.282;2024-01-15T04:06:43;93853.69;;;4.01;57.13
6393;BME280;3229;42.674;23.282;2024-01-15T04:09:11;93842.91;;;3.99;57.06
6393;BME280;3229;42.674;23.282;2024-01-15T04:11:38;93801.59;;;3.66;57.18
6393;BME280;3229;42.674;23.282;2024-01-15T04:14:05;93850.72;;;3.96;57.26
6393;BME280;3229;42.674;23.282;2024-01-15T04:16:32;93855.91;;;3.94;57.07
6393;BME280;3229;42.674;23.282;2024-01-15T04:19:00;93856.94;;;3.92;57.28
6393;BME280;3229;42.674;23.282;2024-01-15T04:21:27;93846.16;;;3.90;57.08
6393;BME280;3229;42.674;23.282;2024-01-15T04:23:55;93853.03;;;3.88;57.29
6393;BME280;3229;42.674;23.282;2024-01-15T04:26:21;93863.28;;;3.86;57.30
6393;BME280;3229;42.674;23.282;2024-01-15T04:28:48;93857.53;;;3.84;57.40
6393;BME280;3229;42.674;23.282;2024-01-15T04:31:23;93852.94;;;3.78;57.45
6393;BME280;3229;42.674;23.282;2024-01-15T04:33:50;93849.84;;;3.74;57.43
6393;BME280;3229;42.674;23.282;2024-01-15T04:36:16;93855.81;;;3.73;57.54
6393;BME280;3229;42.674;23.282;2024-01-15T04:38:43;93809.00;;;3.47;57.35
6393;BME280;3229;42.674;23.282;2024-01-15T04:41:12;93852.50;;;3.73;57.46
6393;BME280;3229;42.674;23.282;2024-01-15T04:43:39;93825.41;;;3.52;57.32
6393;BME280;3229;42.674;23.282;2024-01-15T04:46:06;93847.66;;;3.70;57.45
6393;BME280;3229;42.674;23.282;2024-01-15T04:48:33;93849.53;;;3.68;57.49
6393;BME280;3229;42.674;23.282;2024-01-15T04:51:00;93842.03;;;3.66;57.58
6393;BME280;3229;42.674;23.282;2024-01-15T04:53:30;93840.56;;;3.64;57.65
6393;BME280;3229;42.674;23.282;2024-01-15T04:55:56;93824.81;;;3.60;57.57
6393;BME280;3229;42.674;23.282;2024-01-15T04:58:25;93808.78;;;3.50;57.48
6393;BME280;3229;42.674;23.282;2024-01-15T05:00:52;93829.66;;;3.63;57.60
6393;BME280;3229;42.674;23.282;2024-01-15T05:03:19;93824.69;;;3.62;57.54
6393;BME280;3229;42.674;23.282;2024-01-15T05:05:46;93804.59;;;3.49;57.60
6393;BME280;3229;42.674;23.282;2024-01-15T05:08:13;93833.06;;;3.62;57.69
6393;BME280;3229;42.674;23.282;2024-01-15T05:10:40;93819.63;;;3.62;57.72
6393;BME280;3229;42.674;23.282;2024-01-15T05:13:07;93813.22;;;3.58;57.66
6393;BME280;3229;42.674;23.282;2024-01-15T05:15:35;93784.16;;;3.41;57.79
6393;BME280;3229;42.674;23.282;2024-01-15T05:18:02;93822.28;;;3.60;57.87
6393;BME280;3229;42.674;23.282;2024-01-15T05:20:28;93823.09;;;3.61;57.86
6393;BME280;3229;42.674;23.282;2024-01-15T05:22:55;93831.59;;;3.60;57.79
6393;BME280;3229;42.674;23.282;2024-01-15T05:25:22;93810.81;;;3.56;57.82
6393;BME280;3229;42.674;23.282;2024-01-15T05:27:49;93833.44;;;3.58;57.90
6393;BME280;3229;42.674;23.282;2024-01-15T05:30:16;93825.97;;;3.56;57.82
6393;BME280;3229;42.674;23.282;2024-01-15T05:32:44;93819.31;;;3.55;57.70
6393;BME280;3229;42.674;23.282;2024-01-15T05:35:11;93829.53;;;3.53;57.96
6393;BME280;3229;42.674;23.282;2024-01-15T05:37:41;93831.25;;;3.53;57.84
6393;BME280;3229;42.674;23.282;2024-01-15T05:40:09;93827.00;;;3.53;57.92
6393;BME280;3229;42.674;23.282;2024-01-15T05:42:36;93819.53;;;3.52;57.93
6393;BME280;3229;42.674;23.282;2024-01-15T05:45:03;93805.31;;;3.51;57.82
6393;BME280;3229;42.674;23.282;2024-01-15T05:47:31;93787.53;;;3.30;57.90
6393;BME280;3229;42.674;23.282;2024-01-15T05:50:00;93801.06;;;3.51;57.95
6393;BME280;3229;42.674;23.282;2024-01-15T05:52:27;93805.31;;;3.51;58.02
6393;BME280;3229;42.674;23.282;2024-01-15T05:54:54;93768.69;;;3.34;58.01
6393;BME280;3229;42.674;23.282;2024-01-15T05:57:21;93761.69;;;3.26;57.88
6393;BME280;3229;42.674;23.282;2024-01-15T05:59:48;93803.00;;;3.59;60.95
6393;BME280;3229;42.674;23.282;2024-01-15T06:02:14;93783.63;;;4.45;100.00
6393;BME280;3229;42.674;23.282;2024-01-15T06:04:41;93778.06;;;5.52;100.00
6393;BME280;3229;42.674;23.282;2024-01-15T06:07:09;93790.91;;;6.40;99.71
6393;BME280;3229;42.674;23.282;2024-01-15T06:09:36;93753.88;;;6.37;94.09
6393;BME280;3229;42.674;23.282;2024-01-15T06:12:04;93768.69;;;6.51;88.06
6393;BME280;3229;42.674;23.282;2024-01-15T06:14:31;93788.09;;;6.52;79.74
6393;BME280;3229;42.674;23.282;2024-01-15T06:16:58;93793.16;;;6.43;74.40
6393;BME280;3229;42.674;23.282;2024-01-15T06:19:24;93801.47;;;6.35;71.62
6393;BME280;3229;42.674;23.282;2024-01-15T06:21:51;93803.97;;;6.25;70.12
6393;BME280;3229;42.674;23.282;2024-01-15T06:24:19;93756.16;;;5.92;69.27
6393;BME280;3229;42.674;23.282;2024-01-15T06:26:46;93761.25;;;5.92;68.60
6393;BME280;3229;42.674;23.282;2024-01-15T06:29:13;93789.16;;;6.01;68.09
6393;BME280;3229;42.674;23.282;2024-01-15T06:31:40;93808.13;;;5.97;67.72
6393;BME280;3229;42.674;23.282;2024-01-15T06:34:07;93806.78;;;5.93;67.29
6393;BME280;3229;42.674;23.282;2024-01-15T06:36:33;93764.25;;;5.66;66.84
6393;BME280;3229;42.674;23.282;2024-01-15T06:39:00;93800.66;;;5.96;66.54
6393;BME280;3229;42.674;23.282;2024-01-15T06:41:34;93808.53;;;6.02;65.98
6393;BME280;3229;42.674;23.282;2024-01-15T06:44:01;93811.84;;;6.13;65.54
6393;BME280;3229;42.674;23.282;2024-01-15T06:46:27;93800.78;;;6.23;64.91
6393;BME280;3229;42.674;23.282;2024-01-15T06:48:54;93799.03;;;6.34;64.61
6393;BME280;3229;42.674;23.282;2024-01-15T06:51:21;93807.47;;;6.44;64.02
6393;BME280;3229;42.674;23.282;2024-01-15T06:53:48;93802.78;;;6.49;63.75
6393;BME280;3229;42.674;23.282;2024-01-15T06:56:14;93803.19;;;6.54;63.29
6393;BME280;3229;42.674;23.282;2024-01-15T06:58:43;93804.38;;;6.60;63.26
6393;BME280;3229;42.674;23.282;2024-01-15T07:01:09;93806.66;;;6.63;62.57
6393;BME280;3229;42.674;23.282;2024-01-15T07:03:37;93820.94;;;6.64;62.27
6393;BME280;3229;42.674;23.282;2024-01-15T07:06:04;93819.19;;;6.64;61.95
6393;BME280;3229;42.674;23.282;2024-01-15T07:08:31;93826.81;;;6.64;61.59
6393;BME280;3229;42.674;23.282;2024-01-15T07:10:58;93821.75;;;6.64;61.24
6393;BME280;3229;42.674;23.282;2024-01-15T07:13:25;93821.09;;;6.62;61.01
6393;BME280;3229;42.674;23.282;2024-01-15T07:15:53;93818.53;;;6.62;60.75
6393;BME280;3229;42.674;23.282;2024-01-15T07:18:19;93812.38;;;6.55;60.70
6393;BME280;3229;42.674;23.282;2024-01-15T07:20:46;93814.41;;;6.61;60.63
6393;BME280;3229;42.674;23.282;2024-01-15T07:23:13;93796.88;;;6.58;60.43
6393;BME280;3229;42.674;23.282;2024-01-15T07:25:40;93810.13;;;6.62;60.16
6393;BME280;3229;42.674;23.282;2024-01-15T07:28:07;93799.16;;;6.61;60.19
6393;BME280;3229;42.674;23.282;2024-01-15T07:30:33;93800.09;;;6.60;59.96
6393;BME280;3229;42.674;23.282;2024-01-15T07:33:02;93794.63;;;6.55;60.06
6393;BME280;3229;42.674;23.282;2024-01-15T07:35:29;93748.56;;;6.31;59.83
6393;BME280;3229;42.674;23.282;2024-01-15T07:37:56;93782.44;;;6.59;59.62
6393;BME280;3229;42.674;23.282;2024-01-15T07:40:23;93789.41;;;6.57;59.55
6393;BME280;3229;42.674;23.282;2024-01-15T07:42:50;93802.50;;;6.62;59.52
6393;BME280;3229;42.674;23.282;2024-01-15T07:45:17;93807.19;;;6.66;59.34
6393;BME280;3229;42.674;23.282;2024-01-15T07:47:43;93801.00;;;6.69;59.39
6393;BME280;3229;42.674;23.282;2024-01-15T07:50:12;93805.56;;;6.75;59.14
6393;BME280;3229;42.674;23.282;2024-01-15T07:52:39;93820.41;;;6.79;59.26
6393;BME280;3229;42.674;23.282;2024-01-15T07:55:07;93810.22;;;6.79;59.00
6393;BME280;3229;42.674;23.282;2024-01-15T07:57:34;93801.63;;;6.90;58.88
6393;BME280;3229;42.674;23.282;2024-01-15T08:00:01;93779.97;;;6.96;58.76
6393;BME280;3229;42.674;23.282;2024-01-15T08:02:29;93766.06;;;7.00;58.54
6393;BME280;3229;42.674;23.282;2024-01-15T08:04:57;93769.13;;;6.94;58.45
6393;BME280;3229;42.674;23.282;2024-01-15T08:07:25;93779.91;;;7.15;58.20
6393;BME280;3229;42.674;23.282;2024-01-15T08:09:53;93788.56;;;7.22;58.22
6393;BME280;3229;42.674;23.282;2024-01-15T08:12:19;93803.00;;;7.32;57.99
6393;BME280;3229;42.674;23.282;2024-01-15T08:14:47;93807.38;;;7.39;57.88
6393;BME280;3229;42.674;23.282;2024-01-15T08:17:14;93807.50;;;7.47;57.67
6393;BME280;3229;42.674;23.282;2024-01-15T08:19:42;93798.75;;;7.50;57.63
6393;BME280;3229;42.674;23.282;2024-01-15T08:22:09;93802.88;;;7.61;57.46
6393;BME280;3229;42.674;23.282;2024-01-15T08:24:37;93809.94;;;7.67;57.33
6393;BME280;3229;42.674;23.282;2024-01-15T08:27:04;93813.63;;;7.72;57.14
6393;BME280;3229;42.674;23.282;2024-01-15T08:29:31;93817.22;;;7.79;57.14
6393;BME280;3229;42.674;23.282;2024-01-15T08:32:00;93808.22;;;7.85;57.06
6393;BME280;3229;42.674;23.282;2024-01-15T08:34:27;93801.63;;;7.92;56.76
6393;BME280;3229;42.674;23.282;2024-01-15T08:36:53;93787.81;;;7.95;56.72
6393;BME280;3229;42.674;23.282;2024-01-15T08:39:20;93794.22;;;7.99;56.56
6393;BME280;3229;42.674;23.282;2024-01-15T08:41:48;93779.31;;;8.04;56.38
6393;BME280;3229;42.674;23.282;2024-01-15T08:44:15;93786.19;;;8.12;56.40
6393;BME280;3229;42.674;23.282;2024-01-15T08:46:42;93783.72;;;8.20;56.27
6393;BME280;3229;42.674;23.282;2024-01-15T08:49:09;93776.03;;;8.29;56.01
6393;BME280;3229;42.674;23.282;2024-01-15T08:51:35;93788.56;;;8.41;55.80
6393;BME280;3229;42.674;23.282;2024-01-15T08:54:03;93765.97;;;8.46;55.72
6393;BME280;3229;42.674;23.282;2024-01-15T08:56:30;93756.63;;;8.46;55.58
6393;BME280;3229;42.674;23.282;2024-01-15T08:58:58;93771.56;;;8.67;55.34
6393;BME280;3229;42.674;23.282;2024-01-15T09:01:25;93747.38;;;8.71;55.31
6393;BME280;3229;42.674;23.282;2024-01-15T09:03:52;93751.88;;;8.77;55.22
6393;BME280;3229;42.674;23.282;2024-01-15T09:06:19;93753.47;;;8.78;55.13
6393;BME280;3229;42.674;23.282;2024-01-15T09:08:46;93747.13;;;8.83;55.13
6393;BME280;3229;42.674;23.282;2024-01-15T09:11:12;93715.41;;;8.77;55.00
6393;BME280;3229;42.674;23.282;2024-01-15T09:13:39;93709.91;;;8.90;54.74
6393;BME280;3229;42.674;23.282;2024-01-15T09:16:07;93702.72;;;8.93;54.65
6393;BME280;3229;42.674;23.282;2024-01-15T09:18:34;93695.22;;;8.92;54.60
6393;BME280;3229;42.674;23.282;2024-01-15T09:21:03;93687.44;;;8.93;54.42
6393;BME280;3229;42.674;23.282;2024-01-15T09:23:30;93704.44;;;9.19;54.44
6393;BME280;3229;42.674;23.282;2024-01-15T09:25:57;93696.19;;;9.25;54.12
6393;BME280;3229;42.674;23.282;2024-01-15T09:28:24;93693.34;;;9.36;54.10
6393;BME280;3229;42.674;23.282;2024-01-15T09:30:51;93701.97;;;9.43;53.89
6393;BME280;3229;42.674;23.282;2024-01-15T09:33:19;93691.31;;;9.56;53.51
6393;BME280;3229;42.674;23.282;2024-01-15T09:35:45;93669.78;;;9.67;53.31
6393;BME280;3229;42.674;23.282;2024-01-15T09:38:12;93665.38;;;9.85;52.82
6393;BME280;3229;42.674;23.282;2024-01-15T09:40:43;93665.22;;;9.95;52.72
6393;BME280;3229;42.674;23.282;2024-01-15T09:43:10;93670.63;;;10.16;52.58
6393;BME280;3229;42.674;23.282;2024-01-15T09:45:37;93657.56;;;10.27;52.24
6393;BME280;3229;42.674;23.282;2024-01-15T09:48:04;93653.41;;;10.43;51.89
6393;BME280;3229;42.674;23.282;2024-01-15T09:50:33;93644.09;;;10.58;51.69
6393;BME280;3229;42.674;23.282;2024-01-15T09:53:00;93596.84;;;10.46;51.28
6393;BME280;3229;42.674;23.282;2024-01-15T09:55:28;93634.78;;;10.73;51.34
6393;BME280;3229;42.674;23.282;2024-01-15T09:57:55;93630.16;;;10.77;51.33
6393;BME280;3229;42.674;23.282;2024-01-15T10:00:23;93620.25;;;10.74;51.43
6393;BME280;3229;42.674;23.282;2024-01-15T10:02:50;93636.69;;;10.79;51.07
6393;BME280;3229;42.674;23.282;2024-01-15T10:05:17;93606.53;;;10.67;51.18
6393;BME280;3229;42.674;23.282;2024-01-15T10:07:45;93644.50;;;10.86;50.84
6393;BME280;3229;42.674;23.282;2024-01-15T10:10:15;93623.06;;;10.87;50.74
6393;BME280;3229;42.674;23.282;2024-01-15T10:12:42;93612.81;;;10.95;50.75
6393;BME280;3229;42.674;23.282;2024-01-15T10:15:09;93617.41;;;11.00;50.60
6393;BME280;3229;42.674;23.282;2024-01-15T10:17:38;93601.41;;;11.06;50.32
6393;BME280;3229;42.674;23.282;2024-01-15T10:20:08;93599.16;;;11.11;50.03
6393;BME280;3229;42.674;23.282;2024-01-15T10:22:35;93597.84;;;11.15;50.16
6393;BME280;3229;42.674;23.282;2024-01-15T10:25:05;93591.72;;;11.24;50.02
6393;BME280;3229;42.674;23.282;2024-01-15T10:27:32;93582.84;;;11.35;49.53
6393;BME280;3229;42.674;23.282;2024-01-15T10:29:59;93543.91;;;11.25;49.38
6393;BME280;3229;42.674;23.282;2024-01-15T10:32:27;93554.63;;;11.43;49.10
6393;BME280;3229;42.674;23.282;2024-01-15T10:34:54;93580.69;;;11.70;49.10
6393;BME280;3229;42.674;23.282;2024-01-15T10:37:23;93576.16;;;11.80;48.74
6393;BME280;3229;42.674;23.282;2024-01-15T10:39:50;93578.59;;;11.96;48.69
6393;BME280;3229;42.674;23.282;2024-01-15T10:42:19;93577.03;;;12.10;48.35
6393;BME280;3229;42.674;23.282;2024-01-15T10:44:46;93589.94;;;12.17;48.37
6393;BME280;3229;42.674;23.282;2024-01-15T10:47:13;93549.38;;;12.05;48.08
6393;BME280;3229;42.674;23.282;2024-01-15T10:49:40;93566.78;;;12.25;47.88
6393;BME280;3229;42.674;23.282;2024-01-15T10:52:07;93566.44;;;12.28;47.97
6393;BME280;3229;42.674;23.282;2024-01-15T10:54:35;93549.13;;;12.30;47.99
6393;BME280;3229;42.674;23.282;2024-01-15T10:57:04;93557.25;;;12.34;47.93
6393;BME280;3229;42.674;23.282;2024-01-15T10:59:33;93563.63;;;12.38;47.55
6393;BME280;3229;42.674;23.282;2024-01-15T11:02:00;93553.56;;;12.36;47.64
6393;BME280;3229;42.674;23.282;2024-01-15T11:04:27;93556.81;;;12.45;47.68
6393;BME280;3229;42.674;23.282;2024-01-15T11:06:55;93532.78;;;12.46;47.51
6393;BME280;3229;42.674;23.282;2024-01-15T11:09:23;93531.81;;;12.62;47.50
6393;BME280;3229;42.674;23.282;2024-01-15T11:11:52;93537.44;;;12.72;46.89
6393;BME280;3229;42.674;23.282;2024-01-15T11:14:39;93533.09;;;12.87;47.01
6393;BME280;3229;42.674;23.282;2024-01-15T11:17:09;93527.31;;;13.00;47.06
6393;BME280;3229;42.674;23.282;2024-01-15T11:19:37;93522.31;;;13.13;46.59
6393;BME280;3229;42.674;23.282;2024-01-15T11:22:07;93503.59;;;13.19;46.63
6393;BME280;3229;42.674;23.282;2024-01-15T11:24:38;93520.28;;;13.45;46.33
6393;BME280;3229;42.674;23.282;2024-01-15T11:27:05;93527.72;;;13.61;46.07
6393;BME280;3229;42.674;23.282;2024-01-15T11:29:33;93517.56;;;13.74;46.04
6393;BME280;3229;42.674;23.282;2024-01-15T11:32:03;93519.59;;;13.86;45.75
6393;BME280;3229;42.674;23.282;2024-01-15T11:34:53;93513.13;;;13.90;45.46
6393;BME280;3229;42.674;23.282;2024-01-15T11:37:24;93493.44;;;13.75;45.66
6393;BME280;3229;42.674;23.282;2024-01-15T11:39:51;93514.47;;;13.86;45.62
6393;BME280;3229;42.674;23.282;2024-01-15T11:42:20;93503.97;;;13.80;45.95
6393;BME280;3229;42.674;23.282;2024-01-15T11:44:47;93487.22;;;13.63;45.89
6393;BME280;3229;42.674;23.282;2024-01-15T11:47:15;93494.78;;;13.65;45.98
6393;BME280;3229;42.674;23.282;2024-01-15T11:49:58;93514.75;;;13.69;46.10
6393;BME280;3229;42.674;23.282;2024-01-15T11:52:26;93488.66;;;13.66;46.00
6393;BME280;3229;42.674;23.282;2024-01-15T11:55:01;93493.72;;;13.59;46.03
6393;BME280;3229;42.674;23.282;2024-01-15T11:57:37;93451.97;;;13.29;46.23
6393;BME280;3229;42.674;23.282;2024-01-15T12:00:08;93483.53;;;13.44;46.34
6393;BME280;3229;42.674;23.282;2024-01-15T12:02:37;93480.47;;;13.34;46.53
6393;BME280;3229;42.674;23.282;2024-01-15T12:05:05;93493.81;;;13.23;46.70
6393;BME280;3229;42.674;23.282;2024-01-15T12:07:33;93455.19;;;12.95;46.79
6393;BME280;3229;42.674;23.282;2024-01-15T12:09:59;93461.84;;;12.89;46.86
6393;BME280;3229;42.674;23.282;2024-01-15T12:12:32;93445.84;;;12.87;47.00
6393;BME280;3229;42.674;23.282;2024-01-15T12:15:01;93452.25;;;12.76;47.07
6393;BME280;3229;42.674;23.282;2024-01-15T12:17:29;93441.41;;;12.60;46.95
6393;BME280;3229;42.674;23.282;2024-01-15T12:19:58;93462.00;;;12.66;47.09
6393;BME280;3229;42.674;23.282;2024-01-15T12:22:24;93446.09;;;12.56;47.12
6393;BME280;3229;42.674;23.282;2024-01-15T12:24:53;93464.19;;;12.48;47.33
6393;BME280;3229;42.674;23.282;2024-01-15T12:27:20;93465.50;;;12.44;47.24
6393;BME280;3229;42.674;23.282;2024-01-15T12:29:47;93448.00;;;12.33;47.61
6393;BME280;3229;42.674;23.282;2024-01-15T12:32:14;93436.47;;;12.22;47.49
6393;BME280;3229;42.674;23.282;2024-01-15T12:34:39;93447.91;;;12.26;47.51
6393;BME280;3229;42.674;23.282;2024-01-15T12:37:08;93404.03;;;11.99;47.55
6393;BME280;3229;42.674;23.282;2024-01-15T12:39:36;93438.38;;;12.20;47.67
6393;BME280;3229;42.674;23.282;2024-01-15T12:42:03;93435.38;;;12.16;47.47
6393;BME280;3229;42.674;23.282;2024-01-15T12:44:32;93431.41;;;12.14;47.70
6393;BME280;3229;42.674;23.282;2024-01-15T12:46:59;93436.09;;;12.10;47.73
6393;BME280;3229;42.674;23.282;2024-01-15T12:49:25;93440.97;;;12.05;47.97
6393;BME280;3229;42.674;23.282;2024-01-15T12:51:53;93421.44;;;11.89;47.66
6393;BME280;3229;42.674;23.282;2024-01-15T12:54:22;93428.06;;;11.84;47.75
6393;BME280;3229;42.674;23.282;2024-01-15T12:56:50;93437.94;;;11.87;47.96
6393;BME280;3229;42.674;23.282;2024-01-15T12:59:17;93413.44;;;11.69;47.76
6393;BME280;3229;42.674;23.282;2024-01-15T13:01:44;93438.38;;;11.75;48.11
6393;BME280;3229;42.674;23.282;2024-01-15T13:04:12;93429.59;;;11.70;48.23
6393;BME280;3229;42.674;23.282;2024-01-15T13:06:47;93416.53;;;11.65;48.12
6393;BME280;3229;42.674;23.282;2024-01-15T13:09:14;93422.38;;;11.59;48.31
6393;BME280;3229;42.674;23.282;2024-01-15T13:11:43;93416.34;;;11.51;48.37
6393;BME280;3229;42.674;23.282;2024-01-15T13:14:10;93405.50;;;11.49;48.22
6393;BME280;3229;42.674;23.282;2024-01-15T13:16:39;93366.59;;;11.16;48.54
6393;BME280;3229;42.674;23.282;2024-01-15T13:19:07;93392.47;;;11.21;48.55
6393;BME280;3229;42.674;23.282;2024-01-15T13:21:34;93416.84;;;11.32;48.68